メインページ
METAR-TAF:

METAR-TAF

空港 :

エドモントン国際空港

エドモントン, アルバータ州, カナダ

緯度: 53-18N, 経度: 113-35W, 海抜: 715m

現時点の気象観測

当レポートは44分前の02:00(UTC)に作成
の風 2kt
気温 -10°C
湿度 85%
気圧 1007 hPa
視程: 32.2km
高度12000ftの雲はほとんどない
高度17000ftの千切れ雲あり
高度22000ftの千切れ雲あり

METAR: CYEG 070200Z 19002KT 20SM FEW120 BKN170 BKN220 M10/M12 A2975 RMK AS2AS3CS2 SLP126

時間: 19:44 (02:44 UTC)

予報

当レポートは3時間6分前の23:38(UTC)に作成
予報は07日の 00時(UTC)から 07日の 24時(UTC)まで有効
の風 6kt
視程: 10km
高度8000ftの雲はほとんどない
高度14000ftの千切れ雲あり
高度22000ftの千切れ雲あり
07日の 0400時(UTC)から
の風 5kt
視程: 10km
高度3000ftの雲はほとんどない
高度8000ftの千切れ雲あり
07日の 1200時(UTC)から
の風 8kt
視程: 3.2km
高度800ftの千切れ雲あり
高度3000ftの曇り
小雪
07日の 12時(UTC)から 07日の 24時(UTC)まで一時的に
視程: 9.7km
高度800ftの雲は散在している
高度3000ftの千切れ雲あり
高度8000ftの曇り
小雪

TAF: CYEG 062338Z 0700/0724 17006KT P6SM FEW080 BKN140 BKN220 FM070400 17005KT P6SM FEW030 BKN080 FM071200 36008KT 2SM -SN BKN008 OVC030 TEMPO 0712/0724 6SM -SN SCT008 BKN030 OVC080 RMK NXT FCST BY 070300Z

4,000以上の空港の気象観測と天気予報(METAR報とTAF報)

利用可能な観測所は地図上に黄色い丸と赤い丸で示す。

丸の上にカーソルを重ねると観測所名を参照できる。

次にクリックすると気象観測と天気予報を参照できる。

マップの切り替え:黒色「×」印の緑ボタンをクリックして拡大、「-」印の緑ボタンをクリックして縮小、緑色の三角印をクリックして隣りの地図に切り替え


METAR-TAF: